Wind Cave Natl Park, South Dakota
Current Conditions -  °F | °C
As of 5:53 AM on Saturday 20 Dec 2014 (Local Time) from KCUT Reporting Station
Broken Clouds Broken Clouds  
Wind Chill: 28°   Ceiling: 9500
Heat Index: 33°   Visibility: 10mi
Dew Point: 17°   Wind: 6mph
Humidity: 52%   Direction: 290°WNW
Pressure: 29.89"   Gusts: NA
Location:  43.59°N, 103.42°W
Report Text: KCUT 201253Z AUTO 29005KT 10SM FEW060 BKN095 01/M08 A2989 RMK AO2 SLP144 T00061083
Loading
Personal Weather Stations






























Interactive Weather Map New forecast layout! Learn more

10-Day Weather Forecast

Advertisements
Track Severe Weather on mobile